sensor_id;sensor_type;location;lat;lon;timestamp;P1;durP1;ratioP1;P2;durP2;ratioP2
78336;SDS011;67610;51.588;7.002;2023-02-18T00:00:57;29.20;;;11.80;;
78336;SDS011;67610;51.588;7.002;2023-02-18T00:03:23;19.55;;;10.15;;
78336;SDS011;67610;51.588;7.002;2023-02-18T00:05:50;22.65;;;11.43;;
78336;SDS011;67610;51.588;7.002;2023-02-18T00:08:15;20.30;;;11.05;;
78336;SDS011;67610;51.588;7.002;2023-02-18T00:10:41;28.00;;;13.05;;
78336;SDS011;67610;51.588;7.002;2023-02-18T00:13:06;23.70;;;11.98;;
78336;SDS011;67610;51.588;7.002;2023-02-18T00:15:35;21.98;;;10.45;;
78336;SDS011;67610;51.588;7.002;2023-02-18T00:18:01;25.52;;;12.40;;
78336;SDS011;67610;51.588;7.002;2023-02-18T00:20:27;20.80;;;11.38;;
78336;SDS011;67610;51.588;7.002;2023-02-18T00:22:52;23.77;;;12.93;;
78336;SDS011;67610;51.588;7.002;2023-02-18T00:25:18;20.50;;;11.98;;
78336;SDS011;67610;51.588;7.002;2023-02-18T00:27:43;27.58;;;13.32;;
78336;SDS011;67610;51.588;7.002;2023-02-18T00:30:09;22.58;;;11.60;;
78336;SDS011;67610;51.588;7.002;2023-02-18T00:32:35;24.13;;;12.20;;
78336;SDS011;67610;51.588;7.002;2023-02-18T00:35:00;23.00;;;12.05;;
78336;SDS011;67610;51.588;7.002;2023-02-18T00:37:26;26.15;;;13.23;;
78336;SDS011;67610;51.588;7.002;2023-02-18T00:39:51;23.15;;;12.70;;
78336;SDS011;67610;51.588;7.002;2023-02-18T00:42:17;23.67;;;12.48;;
78336;SDS011;67610;51.588;7.002;2023-02-18T00:44:42;23.13;;;11.73;;
78336;SDS011;67610;51.588;7.002;2023-02-18T00:47:08;21.70;;;11.63;;
78336;SDS011;67610;51.588;7.002;2023-02-18T00:49:33;25.33;;;12.07;;
78336;SDS011;67610;51.588;7.002;2023-02-18T00:51:58;24.73;;;12.75;;
78336;SDS011;67610;51.588;7.002;2023-02-18T00:54:24;24.30;;;12.07;;
78336;SDS011;67610;51.588;7.002;2023-02-18T00:56:49;23.63;;;11.23;;
78336;SDS011;67610;51.588;7.002;2023-02-18T00:59:15;19.27;;;10.43;;
78336;SDS011;67610;51.588;7.002;2023-02-18T01:01:40;21.83;;;12.18;;
78336;SDS011;67610;51.588;7.002;2023-02-18T01:04:06;26.15;;;13.82;;
78336;SDS011;67610;51.588;7.002;2023-02-18T01:06:31;27.00;;;11.85;;
78336;SDS011;67610;51.588;7.002;2023-02-18T01:08:57;22.48;;;11.68;;
78336;SDS011;67610;51.588;7.002;2023-02-18T01:11:23;24.70;;;12.80;;
78336;SDS011;67610;51.588;7.002;2023-02-18T01:13:48;26.98;;;12.55;;
78336;SDS011;67610;51.588;7.002;2023-02-18T01:16:14;22.05;;;12.13;;
78336;SDS011;67610;51.588;7.002;2023-02-18T01:18:41;24.63;;;12.52;;
78336;SDS011;67610;51.588;7.002;2023-02-18T01:21:07;29.75;;;14.75;;
78336;SDS011;67610;51.588;7.002;2023-02-18T01:23:33;27.33;;;14.27;;
78336;SDS011;67610;51.588;7.002;2023-02-18T01:26:00;27.67;;;14.38;;
78336;SDS011;67610;51.588;7.002;2023-02-18T01:28:25;24.63;;;13.52;;
78336;SDS011;67610;51.588;7.002;2023-02-18T01:30:51;26.70;;;12.95;;
78336;SDS011;67610;51.588;7.002;2023-02-18T01:33:18;24.42;;;12.60;;
78336;SDS011;67610;51.588;7.002;2023-02-18T01:35:44;25.50;;;12.88;;
78336;SDS011;67610;51.588;7.002;2023-02-18T01:38:09;24.02;;;12.80;;
78336;SDS011;67610;51.588;7.002;2023-02-18T01:40:35;27.52;;;14.23;;
78336;SDS011;67610;51.588;7.002;2023-02-18T01:43:01;24.80;;;12.75;;
78336;SDS011;67610;51.588;7.002;2023-02-18T01:47:58;20.48;;;11.13;;
78336;SDS011;67610;51.588;7.002;2023-02-18T01:50:26;27.33;;;13.98;;
78336;SDS011;67610;51.588;7.002;2023-02-18T01:52:52;25.48;;;12.55;;
78336;SDS011;67610;51.588;7.002;2023-02-18T01:55:17;25.63;;;13.02;;
78336;SDS011;67610;51.588;7.002;2023-02-18T01:57:43;29.27;;;13.40;;
78336;SDS011;67610;51.588;7.002;2023-02-18T02:00:10;33.58;;;15.40;;
78336;SDS011;67610;51.588;7.002;2023-02-18T02:02:38;28.63;;;14.70;;
78336;SDS011;67610;51.588;7.002;2023-02-18T02:05:07;33.85;;;15.85;;
78336;SDS011;67610;51.588;7.002;2023-02-18T02:07:32;33.30;;;15.15;;
78336;SDS011;67610;51.588;7.002;2023-02-18T02:09:58;35.13;;;15.60;;
78336;SDS011;67610;51.588;7.002;2023-02-18T02:32:27;24.85;;;12.77;;
78336;SDS011;67610;51.588;7.002;2023-02-18T02:35:07;27.73;;;12.73;;
78336;SDS011;67610;51.588;7.002;2023-02-18T02:37:41;23.95;;;12.45;;
78336;SDS011;67610;51.588;7.002;2023-02-18T02:43:08;26.92;;;12.73;;
78336;SDS011;67610;51.588;7.002;2023-02-18T02:45:43;26.20;;;13.00;;
78336;SDS011;67610;51.588;7.002;2023-02-18T02:48:47;29.92;;;14.77;;
78336;SDS011;67610;51.588;7.002;2023-02-18T02:56:44;27.52;;;12.95;;
78336;SDS011;67610;51.588;7.002;2023-02-18T02:59:12;25.55;;;12.82;;
78336;SDS011;67610;51.588;7.002;2023-02-18T03:12:22;30.83;;;16.17;;
78336;SDS011;67610;51.588;7.002;2023-02-18T03:14:57;31.15;;;16.38;;
78336;SDS011;67610;51.588;7.002;2023-02-18T03:17:35;35.47;;;17.08;;
78336;SDS011;67610;51.588;7.002;2023-02-18T03:20:12;34.63;;;16.95;;
78336;SDS011;67610;51.588;7.002;2023-02-18T03:22:46;35.17;;;17.02;;
78336;SDS011;67610;51.588;7.002;2023-02-18T03:25:15;34.17;;;16.50;;
78336;SDS011;67610;51.588;7.002;2023-02-18T03:27:43;30.02;;;15.25;;
78336;SDS011;67610;51.588;7.002;2023-02-18T03:30:52;26.75;;;13.18;;
78336;SDS011;67610;51.588;7.002;2023-02-18T03:33:19;23.00;;;10.77;;
78336;SDS011;67610;51.588;7.002;2023-02-18T03:35:50;20.08;;;10.63;;
78336;SDS011;67610;51.588;7.002;2023-02-18T03:38:18;17.17;;;8.98;;
78336;SDS011;67610;51.588;7.002;2023-02-18T03:40:57;15.75;;;8.00;;
78336;SDS011;67610;51.588;7.002;2023-02-18T03:43:23;13.45;;;7.25;;
78336;SDS011;67610;51.588;7.002;2023-02-18T03:45:48;15.60;;;8.38;;
78336;SDS011;67610;51.588;7.002;2023-02-18T03:48:14;17.83;;;9.02;;
78336;SDS011;67610;51.588;7.002;2023-02-18T03:50:39;19.50;;;10.07;;
78336;SDS011;67610;51.588;7.002;2023-02-18T03:53:05;18.63;;;9.15;;
78336;SDS011;67610;51.588;7.002;2023-02-18T03:55:30;18.75;;;10.43;;
78336;SDS011;67610;51.588;7.002;2023-02-18T03:57:56;19.42;;;9.55;;
78336;SDS011;67610;51.588;7.002;2023-02-18T04:00:21;20.30;;;11.15;;
78336;SDS011;67610;51.588;7.002;2023-02-18T04:02:47;17.10;;;9.00;;
78336;SDS011;67610;51.588;7.002;2023-02-18T04:05:12;18.63;;;9.93;;
78336;SDS011;67610;51.588;7.002;2023-02-18T04:07:38;22.63;;;10.68;;
78336;SDS011;67610;51.588;7.002;2023-02-18T04:10:04;19.33;;;9.73;;
78336;SDS011;67610;51.588;7.002;2023-02-18T04:12:30;21.13;;;10.25;;
78336;SDS011;67610;51.588;7.002;2023-02-18T04:14:55;16.40;;;8.05;;
78336;SDS011;67610;51.588;7.002;2023-02-18T04:17:21;17.33;;;9.35;;
78336;SDS011;67610;51.588;7.002;2023-02-18T04:19:46;22.42;;;10.40;;
78336;SDS011;67610;51.588;7.002;2023-02-18T04:22:12;19.33;;;9.82;;
78336;SDS011;67610;51.588;7.002;2023-02-18T04:24:37;20.15;;;8.77;;
78336;SDS011;67610;51.588;7.002;2023-02-18T04:27:03;16.25;;;7.75;;
78336;SDS011;67610;51.588;7.002;2023-02-18T04:29:28;17.35;;;8.60;;
78336;SDS011;67610;51.588;7.002;2023-02-18T04:31:54;20.05;;;9.05;;
78336;SDS011;67610;51.588;7.002;2023-02-18T04:34:19;21.63;;;10.30;;
78336;SDS011;67610;51.588;7.002;2023-02-18T04:36:44;22.48;;;11.27;;
78336;SDS011;67610;51.588;7.002;2023-02-18T04:39:10;20.10;;;9.85;;
78336;SDS011;67610;51.588;7.002;2023-02-18T04:41:35;20.25;;;10.80;;
78336;SDS011;67610;51.588;7.002;2023-02-18T04:44:01;17.63;;;9.50;;
78336;SDS011;67610;51.588;7.002;2023-02-18T04:46:26;20.80;;;9.68;;
78336;SDS011;67610;51.588;7.002;2023-02-18T04:48:52;13.57;;;7.63;;
78336;SDS011;67610;51.588;7.002;2023-02-18T04:51:17;16.58;;;8.48;;
78336;SDS011;67610;51.588;7.002;2023-02-18T04:53:43;13.80;;;7.65;;
78336;SDS011;67610;51.588;7.002;2023-02-18T04:56:08;13.13;;;7.18;;
78336;SDS011;67610;51.588;7.002;2023-02-18T04:58:34;11.35;;;6.45;;
78336;SDS011;67610;51.588;7.002;2023-02-18T05:01:00;14.23;;;7.45;;
78336;SDS011;67610;51.588;7.002;2023-02-18T05:03:26;12.57;;;5.97;;
78336;SDS011;67610;51.588;7.002;2023-02-18T05:05:52;11.05;;;6.45;;
78336;SDS011;67610;51.588;7.002;2023-02-18T05:08:18;10.43;;;5.78;;
78336;SDS011;67610;51.588;7.002;2023-02-18T05:10:43;10.27;;;5.30;;
78336;SDS011;67610;51.588;7.002;2023-02-18T05:13:09;10.00;;;4.68;;
78336;SDS011;67610;51.588;7.002;2023-02-18T05:15:34;10.60;;;5.10;;
78336;SDS011;67610;51.588;7.002;2023-02-18T05:18:00;8.57;;;4.80;;
78336;SDS011;67610;51.588;7.002;2023-02-18T05:20:25;7.75;;;4.63;;
78336;SDS011;67610;51.588;7.002;2023-02-18T05:22:51;7.68;;;4.38;;
78336;SDS011;67610;51.588;7.002;2023-02-18T05:25:16;6.32;;;3.75;;
78336;SDS011;67610;51.588;7.002;2023-02-18T05:27:41;7.72;;;4.10;;
78336;SDS011;67610;51.588;7.002;2023-02-18T05:30:07;6.32;;;3.80;;
78336;SDS011;67610;51.588;7.002;2023-02-18T05:32:33;6.30;;;3.92;;
78336;SDS011;67610;51.588;7.002;2023-02-18T05:34:58;6.30;;;3.90;;
78336;SDS011;67610;51.588;7.002;2023-02-18T05:37:24;7.60;;;4.10;;
78336;SDS011;67610;51.588;7.002;2023-02-18T05:39:49;7.03;;;3.67;;
78336;SDS011;67610;51.588;7.002;2023-02-18T05:42:15;6.60;;;3.92;;
78336;SDS011;67610;51.588;7.002;2023-02-18T05:44:40;7.07;;;4.22;;
78336;SDS011;67610;51.588;7.002;2023-02-18T05:47:06;7.03;;;4.28;;
78336;SDS011;67610;51.588;7.002;2023-02-18T05:49:36;8.48;;;4.55;;
78336;SDS011;67610;51.588;7.002;2023-02-18T05:52:02;7.78;;;4.75;;
78336;SDS011;67610;51.588;7.002;2023-02-18T05:54:28;6.18;;;4.20;;
78336;SDS011;67610;51.588;7.002;2023-02-18T05:56:54;5.40;;;3.92;;
78336;SDS011;67610;51.588;7.002;2023-02-18T05:59:19;7.10;;;4.10;;
78336;SDS011;67610;51.588;7.002;2023-02-18T06:01:45;8.68;;;4.10;;
78336;SDS011;67610;51.588;7.002;2023-02-18T06:04:11;6.38;;;3.67;;
78336;SDS011;67610;51.588;7.002;2023-02-18T06:06:37;7.10;;;4.10;;
78336;SDS011;67610;51.588;7.002;2023-02-18T06:09:03;8.30;;;4.90;;
78336;SDS011;67610;51.588;7.002;2023-02-18T06:11:29;6.68;;;4.00;;
78336;SDS011;67610;51.588;7.002;2023-02-18T06:13:55;10.50;;;5.70;;
78336;SDS011;67610;51.588;7.002;2023-02-18T06:16:20;11.07;;;5.88;;
78336;SDS011;67610;51.588;7.002;2023-02-18T06:18:46;8.20;;;5.10;;
78336;SDS011;67610;51.588;7.002;2023-02-18T06:21:11;10.20;;;6.45;;
78336;SDS011;67610;51.588;7.002;2023-02-18T06:23:37;12.27;;;7.95;;
78336;SDS011;67610;51.588;7.002;2023-02-18T06:26:02;14.25;;;7.80;;
78336;SDS011;67610;51.588;7.002;2023-02-18T06:28:28;10.75;;;6.95;;
78336;SDS011;67610;51.588;7.002;2023-02-18T06:30:54;11.40;;;6.90;;
78336;SDS011;67610;51.588;7.002;2023-02-18T06:33:20;14.55;;;8.13;;
78336;SDS011;67610;51.588;7.002;2023-02-18T06:35:55;11.90;;;6.97;;
78336;SDS011;67610;51.588;7.002;2023-02-18T06:38:23;14.20;;;8.20;;
78336;SDS011;67610;51.588;7.002;2023-02-18T06:40:48;10.40;;;6.65;;
78336;SDS011;67610;51.588;7.002;2023-02-18T06:43:14;11.85;;;7.25;;
78336;SDS011;67610;51.588;7.002;2023-02-18T06:45:39;11.18;;;6.97;;
78336;SDS011;67610;51.588;7.002;2023-02-18T06:48:05;9.50;;;6.15;;
78336;SDS011;67610;51.588;7.002;2023-02-18T06:50:30;12.52;;;6.53;;
78336;SDS011;67610;51.588;7.002;2023-02-18T06:52:56;8.98;;;5.68;;
78336;SDS011;67610;51.588;7.002;2023-02-18T06:55:23;9.63;;;6.13;;
78336;SDS011;67610;51.588;7.002;2023-02-18T06:57:49;9.10;;;6.30;;
78336;SDS011;67610;51.588;7.002;2023-02-18T07:00:15;10.73;;;6.65;;
78336;SDS011;67610;51.588;7.002;2023-02-18T07:02:40;11.13;;;7.25;;
78336;SDS011;67610;51.588;7.002;2023-02-18T07:05:06;11.32;;;7.13;;
78336;SDS011;67610;51.588;7.002;2023-02-18T07:07:31;11.55;;;7.28;;
78336;SDS011;67610;51.588;7.002;2023-02-18T07:09:57;12.63;;;7.55;;
78336;SDS011;67610;51.588;7.002;2023-02-18T07:12:22;10.43;;;7.05;;
78336;SDS011;67610;51.588;7.002;2023-02-18T07:14:48;12.70;;;7.10;;
78336;SDS011;67610;51.588;7.002;2023-02-18T07:17:13;10.27;;;7.00;;
78336;SDS011;67610;51.588;7.002;2023-02-18T07:19:39;11.32;;;7.32;;
78336;SDS011;67610;51.588;7.002;2023-02-18T07:22:04;11.85;;;7.75;;
78336;SDS011;67610;51.588;7.002;2023-02-18T07:24:30;11.15;;;7.35;;
78336;SDS011;67610;51.588;7.002;2023-02-18T07:26:55;13.27;;;7.93;;
78336;SDS011;67610;51.588;7.002;2023-02-18T07:29:21;13.90;;;8.25;;
78336;SDS011;67610;51.588;7.002;2023-02-18T07:31:46;15.15;;;9.45;;
78336;SDS011;67610;51.588;7.002;2023-02-18T07:34:11;14.88;;;9.02;;
78336;SDS011;67610;51.588;7.002;2023-02-18T07:36:37;14.85;;;9.02;;
78336;SDS011;67610;51.588;7.002;2023-02-18T07:39:02;12.93;;;8.48;;
78336;SDS011;67610;51.588;7.002;2023-02-18T07:41:28;13.43;;;8.30;;
78336;SDS011;67610;51.588;7.002;2023-02-18T07:43:53;11.68;;;8.23;;
78336;SDS011;67610;51.588;7.002;2023-02-18T07:46:19;10.98;;;7.28;;
78336;SDS011;67610;51.588;7.002;2023-02-18T07:48:44;10.70;;;6.70;;
78336;SDS011;67610;51.588;7.002;2023-02-18T07:51:10;9.02;;;6.10;;
78336;SDS011;67610;51.588;7.002;2023-02-18T07:53:37;11.20;;;6.40;;
78336;SDS011;67610;51.588;7.002;2023-02-18T07:56:03;10.27;;;5.85;;
78336;SDS011;67610;51.588;7.002;2023-02-18T07:58:30;11.02;;;6.03;;
78336;SDS011;67610;51.588;7.002;2023-02-18T08:00:57;8.10;;;5.05;;
78336;SDS011;67610;51.588;7.002;2023-02-18T08:03:24;8.95;;;5.00;;
78336;SDS011;67610;51.588;7.002;2023-02-18T08:05:52;7.75;;;4.47;;
78336;SDS011;67610;51.588;7.002;2023-02-18T08:08:19;12.98;;;5.10;;
78336;SDS011;67610;51.588;7.002;2023-02-18T08:10:47;7.85;;;4.55;;
78336;SDS011;67610;51.588;7.002;2023-02-18T08:13:13;6.80;;;3.92;;
78336;SDS011;67610;51.588;7.002;2023-02-18T08:15:39;6.63;;;3.28;;
78336;SDS011;67610;51.588;7.002;2023-02-18T08:18:05;7.03;;;3.42;;
78336;SDS011;67610;51.588;7.002;2023-02-18T08:20:35;5.82;;;3.17;;
78336;SDS011;67610;51.588;7.002;2023-02-18T08:23:02;4.70;;;2.55;;
78336;SDS011;67610;51.588;7.002;2023-02-18T08:25:28;8.40;;;3.53;;
78336;SDS011;67610;51.588;7.002;2023-02-18T08:27:53;5.70;;;3.80;;
78336;SDS011;67610;51.588;7.002;2023-02-18T08:30:19;6.15;;;4.25;;
78336;SDS011;67610;51.588;7.002;2023-02-18T08:32:44;6.22;;;4.30;;
78336;SDS011;67610;51.588;7.002;2023-02-18T08:35:10;7.38;;;4.40;;
78336;SDS011;67610;51.588;7.002;2023-02-18T08:37:36;8.43;;;5.10;;
78336;SDS011;67610;51.588;7.002;2023-02-18T08:40:02;6.10;;;4.00;;
78336;SDS011;67610;51.588;7.002;2023-02-18T08:42:28;7.03;;;4.00;;
78336;SDS011;67610;51.588;7.002;2023-02-18T08:44:54;6.32;;;3.97;;
78336;SDS011;67610;51.588;7.002;2023-02-18T08:47:19;6.78;;;3.65;;
78336;SDS011;67610;51.588;7.002;2023-02-18T08:49:45;6.32;;;3.95;;
78336;SDS011;67610;51.588;7.002;2023-02-18T08:52:10;6.28;;;3.70;;
78336;SDS011;67610;51.588;7.002;2023-02-18T08:54:35;7.72;;;5.15;;
78336;SDS011;67610;51.588;7.002;2023-02-18T08:57:01;7.38;;;5.05;;
78336;SDS011;67610;51.588;7.002;2023-02-18T08:59:26;9.23;;;5.70;;
78336;SDS011;67610;51.588;7.002;2023-02-18T09:01:52;9.07;;;5.10;;
78336;SDS011;67610;51.588;7.002;2023-02-18T09:04:17;7.68;;;4.82;;
78336;SDS011;67610;51.588;7.002;2023-02-18T09:06:45;9.25;;;5.15;;
78336;SDS011;67610;51.588;7.002;2023-02-18T09:09:11;7.53;;;4.50;;
78336;SDS011;67610;51.588;7.002;2023-02-18T09:11:37;9.57;;;5.93;;
78336;SDS011;67610;51.588;7.002;2023-02-18T09:14:02;10.25;;;5.40;;
78336;SDS011;67610;51.588;7.002;2023-02-18T09:16:28;9.95;;;5.18;;
78336;SDS011;67610;51.588;7.002;2023-02-18T09:18:54;11.82;;;4.90;;
78336;SDS011;67610;51.588;7.002;2023-02-18T09:21:21;10.85;;;4.95;;
78336;SDS011;67610;51.588;7.002;2023-02-18T09:23:47;9.95;;;4.80;;
78336;SDS011;67610;51.588;7.002;2023-02-18T09:26:14;7.88;;;4.10;;
78336;SDS011;67610;51.588;7.002;2023-02-18T09:28:41;8.85;;;4.55;;
78336;SDS011;67610;51.588;7.002;2023-02-18T09:31:11;10.73;;;4.80;;
78336;SDS011;67610;51.588;7.002;2023-02-18T09:33:40;9.27;;;4.68;;
78336;SDS011;67610;51.588;7.002;2023-02-18T09:36:08;12.13;;;4.65;;
78336;SDS011;67610;51.588;7.002;2023-02-18T09:38:34;11.57;;;4.72;;
78336;SDS011;67610;51.588;7.002;2023-02-18T09:41:00;10.57;;;4.65;;
78336;SDS011;67610;51.588;7.002;2023-02-18T09:43:33;7.68;;;3.10;;
78336;SDS011;67610;51.588;7.002;2023-02-18T09:46:03;16.85;;;4.40;;
78336;SDS011;67610;51.588;7.002;2023-02-18T09:50:59;14.55;;;4.00;;
78336;SDS011;67610;51.588;7.002;2023-02-18T09:53:25;9.95;;;3.78;;
78336;SDS011;67610;51.588;7.002;2023-02-18T09:55:51;28.27;;;5.45;;
78336;SDS011;67610;51.588;7.002;2023-02-18T09:58:21;22.75;;;4.75;;
78336;SDS011;67610;51.588;7.002;2023-02-18T10:00:55;20.90;;;5.18;;
78336;SDS011;67610;51.588;7.002;2023-02-18T10:03:30;16.42;;;4.72;;
78336;SDS011;67610;51.588;7.002;2023-02-18T10:11:00;21.42;;;4.97;;
78336;SDS011;67610;51.588;7.002;2023-02-18T10:13:32;22.65;;;5.13;;
78336;SDS011;67610;51.588;7.002;2023-02-18T10:15:58;18.42;;;5.03;;
78336;SDS011;67610;51.588;7.002;2023-02-18T10:20:56;16.92;;;4.65;;
78336;SDS011;67610;51.588;7.002;2023-02-18T10:23:28;11.52;;;4.03;;
78336;SDS011;67610;51.588;7.002;2023-02-18T10:25:55;7.70;;;3.60;;
78336;SDS011;67610;51.588;7.002;2023-02-18T10:28:22;8.20;;;3.60;;
78336;SDS011;67610;51.588;7.002;2023-02-18T10:30:51;14.68;;;4.10;;
78336;SDS011;67610;51.588;7.002;2023-02-18T10:33:35;32.95;;;5.32;;
78336;SDS011;67610;51.588;7.002;2023-02-18T10:36:26;27.42;;;5.20;;
78336;SDS011;67610;51.588;7.002;2023-02-18T10:47:13;26.23;;;4.45;;
78336;SDS011;67610;51.588;7.002;2023-02-18T10:52:45;9.35;;;3.40;;
78336;SDS011;67610;51.588;7.002;2023-02-18T10:55:15;28.08;;;4.57;;
78336;SDS011;67610;51.588;7.002;2023-02-18T10:58:00;20.50;;;4.60;;
78336;SDS011;67610;51.588;7.002;2023-02-18T11:00:26;6.40;;;3.40;;
78336;SDS011;67610;51.588;7.002;2023-02-18T11:05:39;8.60;;;3.72;;
78336;SDS011;67610;51.588;7.002;2023-02-18T11:08:06;7.07;;;3.38;;
78336;SDS011;67610;51.588;7.002;2023-02-18T11:10:37;10.93;;;3.75;;
78336;SDS011;67610;51.588;7.002;2023-02-18T11:13:05;15.95;;;4.40;;
78336;SDS011;67610;51.588;7.002;2023-02-18T11:15:33;10.98;;;4.20;;
78336;SDS011;67610;51.588;7.002;2023-02-18T11:21:00;47.03;;;7.00;;
78336;SDS011;67610;51.588;7.002;2023-02-18T11:23:27;9.93;;;3.58;;
78336;SDS011;67610;51.588;7.002;2023-02-18T11:28:33;12.30;;;4.20;;
78336;SDS011;67610;51.588;7.002;2023-02-18T11:31:06;12.48;;;4.10;;
78336;SDS011;67610;51.588;7.002;2023-02-18T11:33:38;9.52;;;4.28;;
78336;SDS011;67610;51.588;7.002;2023-02-18T11:36:15;18.40;;;4.57;;
78336;SDS011;67610;51.588;7.002;2023-02-18T11:38:45;50.55;;;8.13;;
78336;SDS011;67610;51.588;7.002;2023-02-18T11:41:16;21.08;;;6.60;;
78336;SDS011;67610;51.588;7.002;2023-02-18T11:43:50;22.40;;;6.30;;
78336;SDS011;67610;51.588;7.002;2023-02-18T11:46:21;21.38;;;5.53;;
78336;SDS011;67610;51.588;7.002;2023-02-18T11:48:49;50.22;;;7.78;;
78336;SDS011;67610;51.588;7.002;2023-02-18T11:51:18;36.60;;;7.57;;
78336;SDS011;67610;51.588;7.002;2023-02-18T11:57:05;18.23;;;5.93;;
78336;SDS011;67610;51.588;7.002;2023-02-18T11:59:35;14.30;;;5.25;;
78336;SDS011;67610;51.588;7.002;2023-02-18T12:04:45;14.07;;;5.28;;
78336;SDS011;67610;51.588;7.002;2023-02-18T12:12:59;18.80;;;5.50;;
78336;SDS011;67610;51.588;7.002;2023-02-18T12:15:45;12.23;;;5.53;;
78336;SDS011;67610;51.588;7.002;2023-02-18T12:19:18;22.00;;;5.65;;
78336;SDS011;67610;51.588;7.002;2023-02-18T12:21:26;10.60;;;4.72;;
78336;SDS011;67610;51.588;7.002;2023-02-18T12:26:46;5.35;;;3.75;;
78336;SDS011;67610;51.588;7.002;2023-02-18T12:29:26;5.65;;;4.00;;
78336;SDS011;67610;51.588;7.002;2023-02-18T13:04:32;9.20;;;5.00;;
78336;SDS011;67610;51.588;7.002;2023-02-18T13:07:15;13.95;;;5.80;;
78336;SDS011;67610;51.588;7.002;2023-02-18T13:15:36;11.35;;;4.63;;
78336;SDS011;67610;51.588;7.002;2023-02-18T13:18:03;12.50;;;5.47;;
78336;SDS011;67610;51.588;7.002;2023-02-18T13:20:45;7.82;;;4.55;;
78336;SDS011;67610;51.588;7.002;2023-02-18T13:23:22;9.25;;;5.45;;
78336;SDS011;67610;51.588;7.002;2023-02-18T13:26:00;11.23;;;5.28;;
78336;SDS011;67610;51.588;7.002;2023-02-18T13:33:59;13.10;;;5.85;;
78336;SDS011;67610;51.588;7.002;2023-02-18T13:41:33;10.68;;;5.63;;
78336;SDS011;67610;51.588;7.002;2023-02-18T13:44:05;11.57;;;5.47;;
78336;SDS011;67610;51.588;7.002;2023-02-18T13:46:52;12.80;;;6.60;;
78336;SDS011;67610;51.588;7.002;2023-02-18T13:49:22;10.65;;;6.38;;
78336;SDS011;67610;51.588;7.002;2023-02-18T13:54:21;11.10;;;4.88;;
78336;SDS011;67610;51.588;7.002;2023-02-18T13:59:44;10.35;;;6.03;;
78336;SDS011;67610;51.588;7.002;2023-02-18T14:07:18;10.98;;;6.57;;
78336;SDS011;67610;51.588;7.002;2023-02-18T14:09:47;11.45;;;6.88;;
78336;SDS011;67610;51.588;7.002;2023-02-18T14:12:17;9.98;;;6.45;;
78336;SDS011;67610;51.588;7.002;2023-02-18T14:14:48;10.55;;;6.05;;
78336;SDS011;67610;51.588;7.002;2023-02-18T14:19:52;12.27;;;6.93;;
78336;SDS011;67610;51.588;7.002;2023-02-18T14:22:28;12.55;;;6.15;;
78336;SDS011;67610;51.588;7.002;2023-02-18T14:27:28;10.98;;;6.38;;
78336;SDS011;67610;51.588;7.002;2023-02-18T14:29:54;11.90;;;6.47;;
78336;SDS011;67610;51.588;7.002;2023-02-18T14:32:28;12.23;;;6.75;;
78336;SDS011;67610;51.588;7.002;2023-02-18T14:37:49;11.15;;;5.72;;
78336;SDS011;67610;51.588;7.002;2023-02-18T14:40:27;10.65;;;6.35;;
78336;SDS011;67610;51.588;7.002;2023-02-18T14:51:01;13.40;;;6.60;;
78336;SDS011;67610;51.588;7.002;2023-02-18T14:53:26;11.15;;;5.57;;
78336;SDS011;67610;51.588;7.002;2023-02-18T14:55:54;13.40;;;6.45;;
78336;SDS011;67610;51.588;7.002;2023-02-18T14:58:46;11.68;;;5.95;;
78336;SDS011;67610;51.588;7.002;2023-02-18T15:01:18;12.10;;;7.13;;
78336;SDS011;67610;51.588;7.002;2023-02-18T15:03:43;11.00;;;6.93;;
78336;SDS011;67610;51.588;7.002;2023-02-18T15:06:30;12.50;;;6.22;;
78336;SDS011;67610;51.588;7.002;2023-02-18T15:09:43;14.20;;;6.78;;
78336;SDS011;67610;51.588;7.002;2023-02-18T15:11:48;11.70;;;7.00;;
78336;SDS011;67610;51.588;7.002;2023-02-18T15:14:23;14.70;;;7.22;;
78336;SDS011;67610;51.588;7.002;2023-02-18T15:16:51;15.88;;;7.40;;
78336;SDS011;67610;51.588;7.002;2023-02-18T15:19:18;15.10;;;7.15;;
78336;SDS011;67610;51.588;7.002;2023-02-18T15:21:46;13.30;;;7.00;;
78336;SDS011;67610;51.588;7.002;2023-02-18T15:24:30;10.80;;;6.45;;
78336;SDS011;67610;51.588;7.002;2023-02-18T15:27:02;10.82;;;6.32;;
78336;SDS011;67610;51.588;7.002;2023-02-18T15:29:35;13.70;;;7.10;;
78336;SDS011;67610;51.588;7.002;2023-02-18T15:32:13;13.93;;;7.18;;
78336;SDS011;67610;51.588;7.002;2023-02-18T15:34:41;17.10;;;8.23;;
78336;SDS011;67610;51.588;7.002;2023-02-18T15:37:09;12.35;;;7.45;;
78336;SDS011;67610;51.588;7.002;2023-02-18T15:39:37;17.02;;;8.00;;
78336;SDS011;67610;51.588;7.002;2023-02-18T15:42:08;16.10;;;8.45;;
78336;SDS011;67610;51.588;7.002;2023-02-18T15:44:44;14.73;;;7.65;;
78336;SDS011;67610;51.588;7.002;2023-02-18T15:47:12;11.75;;;6.60;;
78336;SDS011;67610;51.588;7.002;2023-02-18T15:52:09;15.70;;;7.75;;
78336;SDS011;67610;51.588;7.002;2023-02-18T15:54:36;13.05;;;7.70;;
78336;SDS011;67610;51.588;7.002;2023-02-18T15:57:05;11.82;;;6.85;;
78336;SDS011;67610;51.588;7.002;2023-02-18T15:59:34;16.77;;;8.90;;
78336;SDS011;67610;51.588;7.002;2023-02-18T16:02:13;13.65;;;7.18;;
78336;SDS011;67610;51.588;7.002;2023-02-18T16:04:44;13.48;;;7.35;;
78336;SDS011;67610;51.588;7.002;2023-02-18T16:07:18;17.10;;;8.52;;
78336;SDS011;67610;51.588;7.002;2023-02-18T16:12:39;15.80;;;7.70;;
78336;SDS011;67610;51.588;7.002;2023-02-18T16:15:05;16.30;;;8.50;;
78336;SDS011;67610;51.588;7.002;2023-02-18T16:17:38;15.70;;;7.85;;
78336;SDS011;67610;51.588;7.002;2023-02-18T16:22:52;14.15;;;7.55;;
78336;SDS011;67610;51.588;7.002;2023-02-18T16:25:23;16.08;;;7.60;;
78336;SDS011;67610;51.588;7.002;2023-02-18T16:30:22;16.75;;;7.70;;
78336;SDS011;67610;51.588;7.002;2023-02-18T16:32:49;16.95;;;8.20;;
78336;SDS011;67610;51.588;7.002;2023-02-18T16:35:16;15.57;;;7.70;;
78336;SDS011;67610;51.588;7.002;2023-02-18T16:37:42;15.23;;;7.70;;
78336;SDS011;67610;51.588;7.002;2023-02-18T16:40:42;16.77;;;8.63;;
78336;SDS011;67610;51.588;7.002;2023-02-18T16:43:02;15.60;;;8.30;;
78336;SDS011;67610;51.588;7.002;2023-02-18T16:46:04;14.52;;;7.85;;
78336;SDS011;67610;51.588;7.002;2023-02-18T16:48:36;15.23;;;7.50;;
78336;SDS011;67610;51.588;7.002;2023-02-18T16:51:09;15.73;;;8.40;;
78336;SDS011;67610;51.588;7.002;2023-02-18T16:53:38;13.98;;;7.45;;
78336;SDS011;67610;51.588;7.002;2023-02-18T16:56:04;15.05;;;8.45;;
78336;SDS011;67610;51.588;7.002;2023-02-18T16:58:36;17.15;;;8.40;;
78336;SDS011;67610;51.588;7.002;2023-02-18T17:01:01;14.85;;;8.20;;
78336;SDS011;67610;51.588;7.002;2023-02-18T17:03:27;15.52;;;7.70;;
78336;SDS011;67610;51.588;7.002;2023-02-18T17:05:53;17.58;;;8.57;;
78336;SDS011;67610;51.588;7.002;2023-02-18T17:08:22;17.13;;;8.75;;
78336;SDS011;67610;51.588;7.002;2023-02-18T17:10:50;17.27;;;7.85;;
78336;SDS011;67610;51.588;7.002;2023-02-18T17:13:21;14.23;;;8.27;;
78336;SDS011;67610;51.588;7.002;2023-02-18T17:15:51;13.80;;;7.28;;
78336;SDS011;67610;51.588;7.002;2023-02-18T17:18:18;15.77;;;7.72;;
78336;SDS011;67610;51.588;7.002;2023-02-18T17:20:43;13.60;;;7.40;;
78336;SDS011;67610;51.588;7.002;2023-02-18T17:23:16;10.93;;;6.47;;
78336;SDS011;67610;51.588;7.002;2023-02-18T17:25:45;14.35;;;7.38;;
78336;SDS011;67610;51.588;7.002;2023-02-18T17:28:13;14.75;;;8.13;;
78336;SDS011;67610;51.588;7.002;2023-02-18T17:30:43;16.33;;;7.35;;
78336;SDS011;67610;51.588;7.002;2023-02-18T17:33:14;11.88;;;6.88;;